< < Back
Terminal Aerodrome Forecast


Current Version              Previous Versions:   1  2  3  4  5  6  7  8  9  

Terminal Aerodrome Forecast

882
FTUS42 KCHS 291121
TAFCHS
TAF
KCHS 291121Z 2912/3012 27010KT P6SM FEW050
     FM291700 26013G19KT P6SM SCT060
     FM292300 22009KT P6SM FEW080=



Latest METAR

809
SAUS80 KWBC 300100 CCA
MTRCHS
METAR KCHS 300056Z 21009KT 10SM FEW040 FEW200 30/24 A2994 RMK AO2 SLP137
T03000244


USA.gov is the U.S. government's official web portal to all federal, state and local government web resources and services.